Obelix — 7JAX — position and weather

sailwx.info

Track history (hours):
 
Tides and Currents Weather Stations Pressure Air Temp Water Temp Dewpoint Dewpoint Depression Visibility Wind Speed Wind Dir Waves Ship Positions

Obelix

Last reported at 2017-Nov-19 06:00 UTC. Time now 2017-Nov-19 06:27 UTC.
Position N 35°26' E 139°45'.

Length 74 m; draft 4.5 m.

Type: Tanker. MMSI: 432528000.

Date/timePositionNaut miles runAvg speedWind from/ knotsBaromVisibWave heightAir tempDewpointWater temp
2017-Nov-19 06:00N 35°26' E 139°45'611.9
2017-Nov-19 05:30N 35°29' E 139°51'611.5
2017-Nov-19 04:59N 35°32' E 139°58'4 0.7
2017-Nov-18 23:45N 35°32' E 140°03'2 6.0
2017-Nov-18 23:24N 35°31' E 140°00'4 9.7
2017-Nov-18 22:57N 35°29' E 139°56'1 0.6
2017-Nov-18 21:03N 35°28' E 139°55'0 0.8
2017-Nov-18 21:00N 35°28' E 139°55'0 0.0
2017-Nov-18 20:26N 35°28' E 139°55'0 0.0
2017-Nov-18 19:56N 35°28' E 139°55'0 0.0
2017-Nov-18 19:30N 35°28' E 139°55'0 0.0
2017-Nov-18 18:52N 35°28' E 139°55'0 0.0
2017-Nov-18 18:27N 35°28' E 139°55'0 0.0
2017-Nov-18 17:54N 35°28' E 139°55'0 0.0
2017-Nov-18 17:30N 35°28' E 139°55'0 0.0
2017-Nov-18 16:53N 35°28' E 139°55'0 0.0
2017-Nov-18 12:45N 35°28' E 139°55'2 7.2
2017-Nov-18 12:30N 35°28' E 139°53'510.5
2017-Nov-18 12:00N 35°25' E 139°48'510.9
2017-Nov-18 11:30N 35°20' E 139°44'5 9.6
2017-Nov-18 11:01N 35°16' E 139°47'510.3
2017-Nov-18 10:31N 35°11' E 139°46'611.9
2017-Nov-18 10:00N 35°05' E 139°45'612.6
2017-Nov-18 09:30N 35°01' E 139°38'612.3
2017-Nov-18 09:00N 34°58' E 139°32'712.2
2017-Nov-18 08:25N 34°54' E 139°25'22510.2
2017-Nov-17 10:25N 34°04' E 134°59'512.0
2017-Nov-17 10:00N 34°09' E 134°59'1811.5
2017-Nov-17 08:23N 34°27' E 135°01'411.5
2017-Nov-17 08:00N 34°31' E 135°02'5 9.7
2017-Nov-17 07:30N 34°36' E 135°02'611.7
2017-Nov-17 07:00N 34°37' E 134°55'4 0.1
2017-Nov-16 07:16N 34°38' E 134°59'310.8
2017-Nov-16 06:57N 34°36' E 135°03'5 9.8
2017-Nov-16 06:29N 34°35' E 135°09'511.1
2017-Nov-16 06:00N 34°34' E 135°15'510.7
2017-Nov-16 05:30N 34°34' E 135°21'3 1.6
2017-Nov-16 03:26N 34°32' E 135°25'0 0.0
2017-Nov-16 02:44N 34°32' E 135°25'0 0.0
2017-Nov-15 23:38N 34°32' E 135°25'0 0.0
2017-Nov-15 23:26N 34°32' E 135°25'0 0.4
2017-Nov-15 23:00N 34°33' E 135°25'3 5.6
2017-Nov-15 22:30N 34°33' E 135°22'2 2.3
2017-Nov-15 21:46N 34°32' E 135°20'0 0.0
2017-Nov-15 21:10N 34°32' E 135°20'0 0.0
2017-Nov-15 20:58N 34°32' E 135°20'0 0.0
2017-Nov-15 20:22N 34°32' E 135°20'0 0.0
2017-Nov-15 19:58N 34°32' E 135°20'0 0.0
2017-Nov-15 19:28N 34°32' E 135°20'0 0.1
2017-Nov-15 18:46N 34°32' E 135°20'0 0.1
2017-Nov-15 18:22N 34°32' E 135°20'0 0.1
2017-Nov-15 17:52N 34°32' E 135°20'0 0.1
2017-Nov-15 17:28N 34°32' E 135°20'0 0.1
2017-Nov-15 16:58N 34°32' E 135°20'0 0.0
2017-Nov-15 16:28N 34°32' E 135°20'0 0.0
2017-Nov-15 15:58N 34°32' E 135°20'0 0.0
2017-Nov-15 15:28N 34°32' E 135°20'0 0.0
2017-Nov-15 14:58N 34°32' E 135°20'0 0.0
2017-Nov-15 14:28N 34°32' E 135°20'0 0.1
2017-Nov-15 13:58N 34°32' E 135°20'0 0.1
2017-Nov-15 13:28N 34°32' E 135°20'0 0.0
2017-Nov-15 12:46N 34°32' E 135°20'0 0.0
2017-Nov-15 12:28N 34°32' E 135°20'0 0.0
2017-Nov-15 11:58N 34°32' E 135°20'0 0.0
2017-Nov-15 11:22N 34°32' E 135°20'0 0.1
2017-Nov-15 10:58N 34°32' E 135°20'0 0.1
2017-Nov-15 10:28N 34°32' E 135°20'0 0.0
2017-Nov-15 09:58N 34°32' E 135°20'0 0.0
2017-Nov-15 09:16N 34°32' E 135°20'0 0.2
2017-Nov-15 08:58N 34°32' E 135°20'0 0.0
2017-Nov-15 08:28N 34°32' E 135°20'0 0.0
2017-Nov-15 07:58N 34°32' E 135°20'0 0.0
2017-Nov-15 07:28N 34°32' E 135°20'0 0.0
2017-Nov-15 06:58N 34°32' E 135°20'0 0.0
2017-Nov-15 06:28N 34°32' E 135°20'0 0.0
2017-Nov-15 05:52N 34°32' E 135°20'0 0.0
2017-Nov-15 05:28N 34°32' E 135°20'0 0.0
2017-Nov-15 04:58N 34°32' E 135°20'0 0.0
2017-Nov-15 04:10N 34°32' E 135°20'0 0.2
2017-Nov-15 03:58N 34°32' E 135°20'0 0.1
2017-Nov-15 03:28N 34°32' E 135°20'0 0.0
2017-Nov-15 02:52N 34°32' E 135°20'0 0.0
2017-Nov-15 02:28N 34°32' E 135°20'0 0.1
2017-Nov-15 02:00N 34°32' E 135°20'510.5
2017-Nov-15 01:30N 34°35' E 135°14'4 6.2
2017-Nov-15 00:49N 34°37' E 135°10'0 0.0
2017-Nov-15 00:19N 34°37' E 135°10'0 0.1
2017-Nov-14 23:43N 34°37' E 135°10'0 0.0
2017-Nov-14 23:19N 34°37' E 135°10'0 0.0
2017-Nov-14 22:55N 34°37' E 135°10'0 0.0
2017-Nov-14 22:19N 34°37' E 135°10'0 0.0
2017-Nov-14 21:43N 34°37' E 135°10'0 0.0
2017-Nov-14 21:19N 34°37' E 135°10'0 0.0
2017-Nov-14 20:55N 34°37' E 135°10'0 0.0
2017-Nov-14 20:25N 34°37' E 135°10'0 0.0
2017-Nov-14 19:55N 34°37' E 135°10'0 0.1
2017-Nov-14 19:25N 34°37' E 135°10'0 0.0
2017-Nov-14 18:55N 34°37' E 135°10'4 9.0
2017-Nov-14 18:30N 34°34' E 135°07'611.7
2017-Nov-14 18:00N 34°37' E 135°01'  
2017-Nov-12 05:34N 34°37' E 135°01'116.0
2017-Nov-12 05:30N 34°37' E 135°02'612.4
2017-Nov-12 05:00N 34°35' E 135°09'611.7
2017-Nov-12 04:30N 34°34' E 135°16'611.1
2017-Nov-12 04:00N 34°34' E 135°23'2 4.4
2017-Nov-12 03:28N 34°33' E 135°25'0 0.0
2017-Nov-12 02:58N 34°33' E 135°25'0 0.0
2017-Nov-12 02:28N 34°33' E 135°25'0 0.0
2017-Nov-12 01:58N 34°33' E 135°25'0 0.0
2017-Nov-12 01:28N 34°33' E 135°25'0 0.0
2017-Nov-12 00:58N 34°33' E 135°25'0 0.0
2017-Nov-12 00:22N 34°33' E 135°25'0 0.0
2017-Nov-11 23:58N 34°33' E 135°25'0 0.0
2017-Nov-11 23:28N 34°33' E 135°25'1 1.1
2017-Nov-11 22:59N 34°33' E 135°25'4 8.5
2017-Nov-11 22:30N 34°32' E 135°20'0 0.6
2017-Nov-11 21:57N 34°32' E 135°20'0 0.0
2017-Nov-11 21:27N 34°32' E 135°20'0 0.0
2017-Nov-11 20:45N 34°32' E 135°20'0 0.0
2017-Nov-11 20:27N 34°32' E 135°20'0 0.0
2017-Nov-11 19:57N 34°32' E 135°20'0 0.0
2017-Nov-11 19:27N 34°32' E 135°20'0 0.0
2017-Nov-11 18:57N 34°32' E 135°20'0 0.0
2017-Nov-11 18:27N 34°32' E 135°20'0 0.0
2017-Nov-11 17:57N 34°32' E 135°20'0 0.0
2017-Nov-11 17:27N 34°32' E 135°20'0 0.0
2017-Nov-11 16:57N 34°32' E 135°20'0 0.0
2017-Nov-11 16:03N 34°32' E 135°20'0 0.0
2017-Nov-11 15:57N 34°32' E 135°20'0 0.0
2017-Nov-11 15:27N 34°32' E 135°20'0 0.0
2017-Nov-11 14:57N 34°32' E 135°20'0 0.0
2017-Nov-11 14:27N 34°32' E 135°20'0 0.0
2017-Nov-11 13:57N 34°32' E 135°20'0 0.0
2017-Nov-11 13:15N 34°32' E 135°20'0 0.0
2017-Nov-11 12:57N 34°32' E 135°20'0 0.0
2017-Nov-11 12:21N 34°32' E 135°20'0 0.0
2017-Nov-11 11:57N 34°32' E 135°20'0 0.0
2017-Nov-11 11:09N 34°32' E 135°20'0 0.0
2017-Nov-11 10:57N 34°32' E 135°20'0 0.0
2017-Nov-11 10:27N 34°32' E 135°20'0 0.0
2017-Nov-11 09:51N 34°32' E 135°20'0 0.0
2017-Nov-11 09:27N 34°32' E 135°20'0 0.1
2017-Nov-11 08:57N 34°32' E 135°20'0 0.0
2017-Nov-11 08:27N 34°32' E 135°20'0 0.0
2017-Nov-11 07:57N 34°32' E 135°20'0 0.0
2017-Nov-11 07:27N 34°32' E 135°20'0 0.1
2017-Nov-11 06:57N 34°32' E 135°20'0 0.0
2017-Nov-11 06:21N 34°32' E 135°20'0 0.0
2017-Nov-11 05:57N 34°32' E 135°20'0 0.0
2017-Nov-11 05:15N 34°32' E 135°20'0 0.0
2017-Nov-11 04:51N 34°32' E 135°20'0 0.0
2017-Nov-11 04:27N 34°32' E 135°20'0 0.1
2017-Nov-11 03:51N 34°32' E 135°20'0 0.0
2017-Nov-11 03:15N 34°32' E 135°20'0 0.0
2017-Nov-11 02:45N 34°32' E 135°20'0 0.0
2017-Nov-11 02:27N 34°32' E 135°20'0 0.1
2017-Nov-11 01:57N 34°32' E 135°20'0 0.1
2017-Nov-11 01:27N 34°32' E 135°20'1 1.3
2017-Nov-11 01:00N 34°32' E 135°19'611.8
2017-Nov-11 00:30N 34°36' E 135°14'5 9.3
2017-Nov-11 00:00N 34°40' E 135°11'0 0.2
2017-Nov-10 23:26N 34°40' E 135°11'0 0.0
2017-Nov-10 22:56N 34°40' E 135°11'0 0.0
2017-Nov-10 22:26N 34°40' E 135°11'0 0.0
2017-Nov-10 21:56N 34°40' E 135°11'0 0.0
2017-Nov-10 21:26N 34°40' E 135°11'0 0.0
2017-Nov-10 20:56N 34°40' E 135°11'0 0.0
2017-Nov-10 20:20N 34°40' E 135°11'0 0.0
2017-Nov-10 19:56N 34°40' E 135°11'0 0.0
2017-Nov-10 19:26N 34°40' E 135°11'0 0.0
2017-Nov-10 18:56N 34°40' E 135°11'0 0.0
2017-Nov-10 18:26N 34°40' E 135°11'0 0.0
2017-Nov-10 17:56N 34°40' E 135°11'0 0.0
2017-Nov-10 17:26N 34°40' E 135°11'0 0.0
2017-Nov-10 16:56N 34°40' E 135°11'0 0.0
2017-Nov-10 16:26N 34°40' E 135°11'0 0.0
2017-Nov-10 15:56N 34°40' E 135°11'0 0.0
2017-Nov-10 15:26N 34°40' E 135°11'0 0.0
2017-Nov-10 14:56N 34°40' E 135°11'0 0.0
2017-Nov-10 14:20N 34°40' E 135°11'0 0.0
2017-Nov-10 13:56N 34°40' E 135°11'0 0.0
2017-Nov-10 13:20N 34°40' E 135°11'0 0.0
2017-Nov-10 12:56N 34°40' E 135°11'0 0.0
2017-Nov-10 12:26N 34°40' E 135°11'0 0.0
2017-Nov-10 11:50N 34°40' E 135°11'0 0.0
2017-Nov-10 11:20N 34°40' E 135°11'0 0.0
2017-Nov-10 10:44N 34°40' E 135°11'0 0.0
2017-Nov-10 10:20N 34°40' E 135°11'0 0.0
2017-Nov-10 09:56N 34°40' E 135°11'0 0.0
2017-Nov-10 09:26N 34°40' E 135°11'0 0.0
2017-Nov-10 08:56N 34°40' E 135°11'0 0.0
2017-Nov-10 08:26N 34°40' E 135°11'0 0.0
2017-Nov-10 07:56N 34°40' E 135°11'0 0.0
2017-Nov-10 07:20N 34°40' E 135°11'0 0.0
2017-Nov-10 06:56N 34°40' E 135°11'0 0.0
2017-Nov-10 06:26N 34°40' E 135°11'0 0.0
2017-Nov-10 05:56N 34°40' E 135°11'0 0.0
2017-Nov-10 05:26N 34°40' E 135°11'0 0.0
2017-Nov-10 04:50N 34°40' E 135°11'0 0.0
2017-Nov-10 04:20N 34°40' E 135°11'0 0.0
2017-Nov-10 03:56N 34°40' E 135°11'0 0.0
2017-Nov-10 03:20N 34°40' E 135°11'0 0.0
2017-Nov-10 02:56N 34°40' E 135°11'0 0.0
2017-Nov-10 02:26N 34°40' E 135°11'0 0.0
2017-Nov-10 01:56N 34°40' E 135°11'0 0.0
2017-Nov-10 01:26N 34°40' E 135°11'0 0.0
2017-Nov-10 00:56N 34°40' E 135°11'0 0.0
2017-Nov-10 00:26N 34°40' E 135°11'0 0.0
2017-Nov-09 23:50N 34°40' E 135°11'0 0.0
2017-Nov-09 22:56N 34°40' E 135°11'0 0.0
2017-Nov-09 22:26N 34°40' E 135°11'0 0.0
2017-Nov-09 21:56N 34°40' E 135°11'0 0.0
2017-Nov-09 21:26N 34°40' E 135°11'0 0.0
2017-Nov-09 20:56N 34°40' E 135°11'0 0.0
2017-Nov-09 20:20N 34°40' E 135°11'0 0.0
2017-Nov-09 19:56N 34°40' E 135°11'0 0.0
2017-Nov-09 19:20N 34°40' E 135°11'0 0.0
2017-Nov-09 18:56N 34°40' E 135°11'0 0.0
2017-Nov-09 18:26N 34°40' E 135°11'0 0.0
2017-Nov-09 17:50N 34°40' E 135°11'0 0.0
2017-Nov-09 17:26N 34°40' E 135°11'0 0.0
2017-Nov-09 16:56N 34°40' E 135°11'0 0.0
2017-Nov-09 16:26N 34°40' E 135°11'0 0.0
2017-Nov-09 15:56N 34°40' E 135°11'0 0.0
2017-Nov-09 15:26N 34°40' E 135°11'0 0.0
2017-Nov-09 14:56N 34°40' E 135°11'0 0.0
2017-Nov-09 14:26N 34°40' E 135°11'0 0.0
2017-Nov-09 13:56N 34°40' E 135°11'0 0.0
2017-Nov-09 13:26N 34°40' E 135°11'0 0.0
2017-Nov-09 12:56N 34°40' E 135°11'0 0.0
2017-Nov-09 12:26N 34°40' E 135°11'0 0.0
2017-Nov-09 11:50N 34°40' E 135°11'0 0.0
2017-Nov-09 11:26N 34°40' E 135°11'0 0.0
2017-Nov-09 10:56N 34°40' E 135°11'0 0.0
2017-Nov-09 10:20N 34°40' E 135°11'0 0.0
2017-Nov-09 09:56N 34°40' E 135°11'0 0.0
2017-Nov-09 09:26N 34°40' E 135°11'0 0.0
2017-Nov-09 08:56N 34°40' E 135°11'0 0.0
2017-Nov-09 08:20N 34°40' E 135°11'0 0.0
2017-Nov-09 07:56N 34°40' E 135°11'0 0.0
2017-Nov-09 07:26N 34°40' E 135°11'0 0.0
2017-Nov-09 06:56N 34°40' E 135°11'0 0.0
2017-Nov-09 06:20N 34°40' E 135°11'  
Track history (hours):
 
Tides and Currents Weather Stations Pressure Air Temp Water Temp Dewpoint Dewpoint Depression Visibility Wind Speed Wind Dir Waves Ship Positions

Obelix

Last reported at 2017-Nov-19 06:00 UTC. Time now 2017-Nov-19 06:27 UTC.
Position N 35°26' E 139°45'.

Length 74 m; draft 4.5 m.

Type: Tanker. MMSI: 432528000.

Date/timePositionNaut miles runAvg speedWind from/ knotsBaromVisibWave heightAir tempDewpointWater temp
2017-Nov-19 06:00N 35°26' E 139°45'611.9
2017-Nov-19 05:30N 35°29' E 139°51'611.5
2017-Nov-19 04:59N 35°32' E 139°58'4 0.7
2017-Nov-18 23:45N 35°32' E 140°03'2 6.0
2017-Nov-18 23:24N 35°31' E 140°00'4 9.7
2017-Nov-18 22:57N 35°29' E 139°56'1 0.6
2017-Nov-18 21:03N 35°28' E 139°55'0 0.8
2017-Nov-18 21:00N 35°28' E 139°55'0 0.0
2017-Nov-18 20:26N 35°28' E 139°55'0 0.0
2017-Nov-18 19:56N 35°28' E 139°55'0 0.0
2017-Nov-18 19:30N 35°28' E 139°55'0 0.0
2017-Nov-18 18:52N 35°28' E 139°55'0 0.0
2017-Nov-18 18:27N 35°28' E 139°55'0 0.0
2017-Nov-18 17:54N 35°28' E 139°55'0 0.0
2017-Nov-18 17:30N 35°28' E 139°55'0 0.0
2017-Nov-18 16:53N 35°28' E 139°55'0 0.0
2017-Nov-18 12:45N 35°28' E 139°55'2 7.2
2017-Nov-18 12:30N 35°28' E 139°53'510.5
2017-Nov-18 12:00N 35°25' E 139°48'510.9
2017-Nov-18 11:30N 35°20' E 139°44'5 9.6
2017-Nov-18 11:01N 35°16' E 139°47'510.3
2017-Nov-18 10:31N 35°11' E 139°46'611.9
2017-Nov-18 10:00N 35°05' E 139°45'612.6
2017-Nov-18 09:30N 35°01' E 139°38'612.3
2017-Nov-18 09:00N 34°58' E 139°32'712.2
2017-Nov-18 08:25N 34°54' E 139°25'22510.2
2017-Nov-17 10:25N 34°04' E 134°59'512.0
2017-Nov-17 10:00N 34°09' E 134°59'1811.5
2017-Nov-17 08:23N 34°27' E 135°01'411.5
2017-Nov-17 08:00N 34°31' E 135°02'5 9.7
2017-Nov-17 07:30N 34°36' E 135°02'611.7
2017-Nov-17 07:00N 34°37' E 134°55'4 0.1
2017-Nov-16 07:16N 34°38' E 134°59'310.8
2017-Nov-16 06:57N 34°36' E 135°03'5 9.8
2017-Nov-16 06:29N 34°35' E 135°09'511.1
2017-Nov-16 06:00N 34°34' E 135°15'510.7
2017-Nov-16 05:30N 34°34' E 135°21'3 1.6
2017-Nov-16 03:26N 34°32' E 135°25'0 0.0
2017-Nov-16 02:44N 34°32' E 135°25'0 0.0
2017-Nov-15 23:38N 34°32' E 135°25'0 0.0
2017-Nov-15 23:26N 34°32' E 135°25'0 0.4
2017-Nov-15 23:00N 34°33' E 135°25'3 5.6
2017-Nov-15 22:30N 34°33' E 135°22'2 2.3
2017-Nov-15 21:46N 34°32' E 135°20'0 0.0
2017-Nov-15 21:10N 34°32' E 135°20'0 0.0
2017-Nov-15 20:58N 34°32' E 135°20'0 0.0
2017-Nov-15 20:22N 34°32' E 135°20'0 0.0
2017-Nov-15 19:58N 34°32' E 135°20'0 0.0
2017-Nov-15 19:28N 34°32' E 135°20'0 0.1
2017-Nov-15 18:46N 34°32' E 135°20'0 0.1
2017-Nov-15 18:22N 34°32' E 135°20'0 0.1
2017-Nov-15 17:52N 34°32' E 135°20'0 0.1
2017-Nov-15 17:28N 34°32' E 135°20'0 0.1
2017-Nov-15 16:58N 34°32' E 135°20'0 0.0
2017-Nov-15 16:28N 34°32' E 135°20'0 0.0
2017-Nov-15 15:58N 34°32' E 135°20'0 0.0
2017-Nov-15 15:28N 34°32' E 135°20'0 0.0
2017-Nov-15 14:58N 34°32' E 135°20'0 0.0
2017-Nov-15 14:28N 34°32' E 135°20'0 0.1
2017-Nov-15 13:58N 34°32' E 135°20'0 0.1
2017-Nov-15 13:28N 34°32' E 135°20'0 0.0
2017-Nov-15 12:46N 34°32' E 135°20'0 0.0
2017-Nov-15 12:28N 34°32' E 135°20'0 0.0
2017-Nov-15 11:58N 34°32' E 135°20'0 0.0
2017-Nov-15 11:22N 34°32' E 135°20'0 0.1
2017-Nov-15 10:58N 34°32' E 135°20'0 0.1
2017-Nov-15 10:28N 34°32' E 135°20'0 0.0
2017-Nov-15 09:58N 34°32' E 135°20'0 0.0
2017-Nov-15 09:16N 34°32' E 135°20'0 0.2
2017-Nov-15 08:58N 34°32' E 135°20'0 0.0
2017-Nov-15 08:28N 34°32' E 135°20'0 0.0
2017-Nov-15 07:58N 34°32' E 135°20'0 0.0
2017-Nov-15 07:28N 34°32' E 135°20'0 0.0
2017-Nov-15 06:58N 34°32' E 135°20'0 0.0
2017-Nov-15 06:28N 34°32' E 135°20'0 0.0
2017-Nov-15 05:52N 34°32' E 135°20'0 0.0
2017-Nov-15 05:28N 34°32' E 135°20'0 0.0
2017-Nov-15 04:58N 34°32' E 135°20'0 0.0
2017-Nov-15 04:10N 34°32' E 135°20'0 0.2
2017-Nov-15 03:58N 34°32' E 135°20'0 0.1
2017-Nov-15 03:28N 34°32' E 135°20'0 0.0
2017-Nov-15 02:52N 34°32' E 135°20'0 0.0
2017-Nov-15 02:28N 34°32' E 135°20'0 0.1
2017-Nov-15 02:00N 34°32' E 135°20'510.5
2017-Nov-15 01:30N 34°35' E 135°14'4 6.2
2017-Nov-15 00:49N 34°37' E 135°10'0 0.0
2017-Nov-15 00:19N 34°37' E 135°10'0 0.1
2017-Nov-14 23:43N 34°37' E 135°10'0 0.0
2017-Nov-14 23:19N 34°37' E 135°10'0 0.0
2017-Nov-14 22:55N 34°37' E 135°10'0 0.0
2017-Nov-14 22:19N 34°37' E 135°10'0 0.0
2017-Nov-14 21:43N 34°37' E 135°10'0 0.0
2017-Nov-14 21:19N 34°37' E 135°10'0 0.0
2017-Nov-14 20:55N 34°37' E 135°10'0 0.0
2017-Nov-14 20:25N 34°37' E 135°10'0 0.0
2017-Nov-14 19:55N 34°37' E 135°10'0 0.1
2017-Nov-14 19:25N 34°37' E 135°10'0 0.0
2017-Nov-14 18:55N 34°37' E 135°10'4 9.0
2017-Nov-14 18:30N 34°34' E 135°07'611.7
2017-Nov-14 18:00N 34°37' E 135°01'  
2017-Nov-12 05:34N 34°37' E 135°01'116.0
2017-Nov-12 05:30N 34°37' E 135°02'612.4
2017-Nov-12 05:00N 34°35' E 135°09'611.7
2017-Nov-12 04:30N 34°34' E 135°16'611.1
2017-Nov-12 04:00N 34°34' E 135°23'2 4.4
2017-Nov-12 03:28N 34°33' E 135°25'0 0.0
2017-Nov-12 02:58N 34°33' E 135°25'0 0.0
2017-Nov-12 02:28N 34°33' E 135°25'0 0.0
2017-Nov-12 01:58N 34°33' E 135°25'0 0.0
2017-Nov-12 01:28N 34°33' E 135°25'0 0.0
2017-Nov-12 00:58N 34°33' E 135°25'0 0.0
2017-Nov-12 00:22N 34°33' E 135°25'0 0.0
2017-Nov-11 23:58N 34°33' E 135°25'0 0.0
2017-Nov-11 23:28N 34°33' E 135°25'1 1.1
2017-Nov-11 22:59N 34°33' E 135°25'4 8.5
2017-Nov-11 22:30N 34°32' E 135°20'0 0.6
2017-Nov-11 21:57N 34°32' E 135°20'0 0.0
2017-Nov-11 21:27N 34°32' E 135°20'0 0.0
2017-Nov-11 20:45N 34°32' E 135°20'0 0.0
2017-Nov-11 20:27N 34°32' E 135°20'0 0.0
2017-Nov-11 19:57N 34°32' E 135°20'0 0.0
2017-Nov-11 19:27N 34°32' E 135°20'0 0.0
2017-Nov-11 18:57N 34°32' E 135°20'0 0.0
2017-Nov-11 18:27N 34°32' E 135°20'0 0.0
2017-Nov-11 17:57N 34°32' E 135°20'0 0.0
2017-Nov-11 17:27N 34°32' E 135°20'0 0.0
2017-Nov-11 16:57N 34°32' E 135°20'0 0.0
2017-Nov-11 16:03N 34°32' E 135°20'0 0.0
2017-Nov-11 15:57N 34°32' E 135°20'0 0.0
2017-Nov-11 15:27N 34°32' E 135°20'0 0.0
2017-Nov-11 14:57N 34°32' E 135°20'0 0.0
2017-Nov-11 14:27N 34°32' E 135°20'0 0.0
2017-Nov-11 13:57N 34°32' E 135°20'0 0.0
2017-Nov-11 13:15N 34°32' E 135°20'0 0.0
2017-Nov-11 12:57N 34°32' E 135°20'0 0.0
2017-Nov-11 12:21N 34°32' E 135°20'0 0.0
2017-Nov-11 11:57N 34°32' E 135°20'0 0.0
2017-Nov-11 11:09N 34°32' E 135°20'0 0.0
2017-Nov-11 10:57N 34°32' E 135°20'0 0.0
2017-Nov-11 10:27N 34°32' E 135°20'0 0.0
2017-Nov-11 09:51N 34°32' E 135°20'0 0.0
2017-Nov-11 09:27N 34°32' E 135°20'0 0.1
2017-Nov-11 08:57N 34°32' E 135°20'0 0.0
2017-Nov-11 08:27N 34°32' E 135°20'0 0.0
2017-Nov-11 07:57N 34°32' E 135°20'0 0.0
2017-Nov-11 07:27N 34°32' E 135°20'0 0.1
2017-Nov-11 06:57N 34°32' E 135°20'0 0.0
2017-Nov-11 06:21N 34°32' E 135°20'0 0.0
2017-Nov-11 05:57N 34°32' E 135°20'0 0.0
2017-Nov-11 05:15N 34°32' E 135°20'0 0.0
2017-Nov-11 04:51N 34°32' E 135°20'0 0.0
2017-Nov-11 04:27N 34°32' E 135°20'0 0.1
2017-Nov-11 03:51N 34°32' E 135°20'0 0.0
2017-Nov-11 03:15N 34°32' E 135°20'0 0.0
2017-Nov-11 02:45N 34°32' E 135°20'0 0.0
2017-Nov-11 02:27N 34°32' E 135°20'0 0.1
2017-Nov-11 01:57N 34°32' E 135°20'0 0.1
2017-Nov-11 01:27N 34°32' E 135°20'1 1.3
2017-Nov-11 01:00N 34°32' E 135°19'611.8
2017-Nov-11 00:30N 34°36' E 135°14'5 9.3
2017-Nov-11 00:00N 34°40' E 135°11'0 0.2
2017-Nov-10 23:26N 34°40' E 135°11'0 0.0
2017-Nov-10 22:56N 34°40' E 135°11'0 0.0
2017-Nov-10 22:26N 34°40' E 135°11'0 0.0
2017-Nov-10 21:56N 34°40' E 135°11'0 0.0
2017-Nov-10 21:26N 34°40' E 135°11'0 0.0
2017-Nov-10 20:56N 34°40' E 135°11'0 0.0
2017-Nov-10 20:20N 34°40' E 135°11'0 0.0
2017-Nov-10 19:56N 34°40' E 135°11'0 0.0
2017-Nov-10 19:26N 34°40' E 135°11'0 0.0
2017-Nov-10 18:56N 34°40' E 135°11'0 0.0
2017-Nov-10 18:26N 34°40' E 135°11'0 0.0
2017-Nov-10 17:56N 34°40' E 135°11'0 0.0
2017-Nov-10 17:26N 34°40' E 135°11'0 0.0
2017-Nov-10 16:56N 34°40' E 135°11'0 0.0
2017-Nov-10 16:26N 34°40' E 135°11'0 0.0
2017-Nov-10 15:56N 34°40' E 135°11'0 0.0
2017-Nov-10 15:26N 34°40' E 135°11'0 0.0
2017-Nov-10 14:56N 34°40' E 135°11'0 0.0
2017-Nov-10 14:20N 34°40' E 135°11'0 0.0
2017-Nov-10 13:56N 34°40' E 135°11'0 0.0
2017-Nov-10 13:20N 34°40' E 135°11'0 0.0
2017-Nov-10 12:56N 34°40' E 135°11'0 0.0
2017-Nov-10 12:26N 34°40' E 135°11'0 0.0
2017-Nov-10 11:50N 34°40' E 135°11'0 0.0
2017-Nov-10 11:20N 34°40' E 135°11'0 0.0
2017-Nov-10 10:44N 34°40' E 135°11'0 0.0
2017-Nov-10 10:20N 34°40' E 135°11'0 0.0
2017-Nov-10 09:56N 34°40' E 135°11'0 0.0
2017-Nov-10 09:26N 34°40' E 135°11'0 0.0
2017-Nov-10 08:56N 34°40' E 135°11'0 0.0
2017-Nov-10 08:26N 34°40' E 135°11'0 0.0
2017-Nov-10 07:56N 34°40' E 135°11'0 0.0
2017-Nov-10 07:20N 34°40' E 135°11'0 0.0
2017-Nov-10 06:56N 34°40' E 135°11'0 0.0
2017-Nov-10 06:26N 34°40' E 135°11'0 0.0
2017-Nov-10 05:56N 34°40' E 135°11'0 0.0
2017-Nov-10 05:26N 34°40' E 135°11'0 0.0
2017-Nov-10 04:50N 34°40' E 135°11'0 0.0
2017-Nov-10 04:20N 34°40' E 135°11'0 0.0
2017-Nov-10 03:56N 34°40' E 135°11'0 0.0
2017-Nov-10 03:20N 34°40' E 135°11'0 0.0
2017-Nov-10 02:56N 34°40' E 135°11'0 0.0
2017-Nov-10 02:26N 34°40' E 135°11'0 0.0
2017-Nov-10 01:56N 34°40' E 135°11'0 0.0
2017-Nov-10 01:26N 34°40' E 135°11'0 0.0
2017-Nov-10 00:56N 34°40' E 135°11'0 0.0
2017-Nov-10 00:26N 34°40' E 135°11'0 0.0
2017-Nov-09 23:50N 34°40' E 135°11'0 0.0
2017-Nov-09 22:56N 34°40' E 135°11'0 0.0
2017-Nov-09 22:26N 34°40' E 135°11'0 0.0
2017-Nov-09 21:56N 34°40' E 135°11'0 0.0
2017-Nov-09 21:26N 34°40' E 135°11'0 0.0
2017-Nov-09 20:56N 34°40' E 135°11'0 0.0
2017-Nov-09 20:20N 34°40' E 135°11'0 0.0
2017-Nov-09 19:56N 34°40' E 135°11'0 0.0
2017-Nov-09 19:20N 34°40' E 135°11'0 0.0
2017-Nov-09 18:56N 34°40' E 135°11'0 0.0
2017-Nov-09 18:26N 34°40' E 135°11'0 0.0
2017-Nov-09 17:50N 34°40' E 135°11'0 0.0
2017-Nov-09 17:26N 34°40' E 135°11'0 0.0
2017-Nov-09 16:56N 34°40' E 135°11'0 0.0
2017-Nov-09 16:26N 34°40' E 135°11'0 0.0
2017-Nov-09 15:56N 34°40' E 135°11'0 0.0
2017-Nov-09 15:26N 34°40' E 135°11'0 0.0
2017-Nov-09 14:56N 34°40' E 135°11'0 0.0
2017-Nov-09 14:26N 34°40' E 135°11'0 0.0
2017-Nov-09 13:56N 34°40' E 135°11'0 0.0
2017-Nov-09 13:26N 34°40' E 135°11'0 0.0
2017-Nov-09 12:56N 34°40' E 135°11'0 0.0
2017-Nov-09 12:26N 34°40' E 135°11'0 0.0
2017-Nov-09 11:50N 34°40' E 135°11'0 0.0
2017-Nov-09 11:26N 34°40' E 135°11'0 0.0
2017-Nov-09 10:56N 34°40' E 135°11'0 0.0
2017-Nov-09 10:20N 34°40' E 135°11'0 0.0
2017-Nov-09 09:56N 34°40' E 135°11'0 0.0
2017-Nov-09 09:26N 34°40' E 135°11'0 0.0
2017-Nov-09 08:56N 34°40' E 135°11'0 0.0
2017-Nov-09 08:20N 34°40' E 135°11'0 0.0
2017-Nov-09 07:56N 34°40' E 135°11'0 0.0
2017-Nov-09 07:26N 34°40' E 135°11'0 0.0
2017-Nov-09 06:56N 34°40' E 135°11'0 0.0
2017-Nov-09 06:20N 34°40' E 135°11'  

Dump ship's entire track history